Time;durP1;ratioP1;P1;durP2;ratioP2;P2;SDS_P1;SDS_P2;PMS_P1;PMS_P2;Temp;Humidity;BMP_temperature;BMP_pressure;BME280_temperature;BME280_humidity;BME280_pressure;Samples;Min_cycle;Max_cycle;Signal;HPM_P1;HPM_P2
2023/01/13 00:00:40;;;;;;;;;0.00;0.00;;;;;-146.44;100.00;58906.56;5073617;27;45460;-60
2023/01/13 00:03:06;;;;;;;;;1.00;0.00;;;;;-146.44;100.00;58906.56;5072196;27;45922;-59
2023/01/13 00:05:31;;;;;;;;;0.00;0.00;;;;;-146.44;100.00;58906.56;5076023;27;45477;-58
2023/01/13 00:07:57;;;;;;;;;0.00;0.00;;;;;-146.44;100.00;58906.56;5075748;27;45530;-62
2023/01/13 00:10:22;;;;;;;;;0.00;0.00;;;;;-146.44;100.00;58906.56;5075265;28;45662;-61
2023/01/13 00:12:47;;;;;;;;;0.00;0.00;;;;;-146.44;100.00;58906.56;5075320;27;45921;-60
2023/01/13 00:15:13;;;;;;;;;0.00;0.00;;;;;-146.44;100.00;58906.56;5074473;27;45462;-60
2023/01/13 00:17:38;;;;;;;;;0.00;0.00;;;;;-146.44;100.00;58906.56;5075726;27;45510;-61
2023/01/13 00:20:04;;;;;;;;;2.00;2.00;;;;;-146.44;100.00;58906.56;5076227;27;45503;-60
2023/01/13 00:22:33;;;;;;;;;1.00;1.00;;;;;-146.44;100.00;58906.56;5075556;27;46181;-58
2023/01/13 00:25:00;;;;;;;;;0.00;0.00;;;;;-146.44;100.00;58906.56;5075193;27;45566;-57
2023/01/13 00:27:26;;;;;;;;;0.00;0.00;;;;;-146.44;100.00;58906.56;5075516;27;45473;-60
2023/01/13 00:29:51;;;;;;;;;0.00;0.00;;;;;-146.44;100.00;58906.56;5075671;27;45659;-58
2023/01/13 00:32:16;;;;;;;;;0.00;0.00;;;;;-146.44;100.00;58906.56;5075461;27;46134;-59
2023/01/13 00:34:42;;;;;;;;;0.00;0.00;;;;;-146.44;100.00;58906.56;5075099;27;45764;-59
2023/01/13 00:37:11;;;;;;;;;0.00;0.00;;;;;-146.44;100.00;58906.56;5075621;27;45411;-59
2023/01/13 00:39:37;;;;;;;;;0.00;0.00;;;;;-146.44;100.00;58906.56;5073401;27;45594;-59
2023/01/13 00:44:47;;;;;;;;;0.00;0.00;;;;;-146.44;100.00;58906.56;5074852;28;45455;-59
2023/01/13 00:47:12;;;;;;;;;1.00;1.00;;;;;-146.44;100.00;58906.56;5075165;27;45428;-59
2023/01/13 00:49:37;;;;;;;;;0.00;0.00;;;;;-146.44;100.00;58906.56;5075114;27;45526;-61
2023/01/13 00:52:03;;;;;;;;;0.00;0.00;;;;;-146.44;100.00;58906.56;5075037;27;46259;-60
2023/01/13 00:54:28;;;;;;;;;1.00;0.00;;;;;-146.44;100.00;58906.56;5075108;27;45520;-59
2023/01/13 00:56:53;;;;;;;;;0.00;0.00;;;;;-146.44;100.00;58906.56;5074947;27;45525;-59
2023/01/13 00:59:19;;;;;;;;;0.00;0.00;;;;;-146.44;100.00;58906.56;5073800;28;47646;-61
2023/01/13 01:01:44;;;;;;;;;0.00;0.00;;;;;-146.44;100.00;58906.56;5069917;27;45988;-59
2023/01/13 01:04:10;;;;;;;;;0.00;0.00;;;;;-146.44;100.00;58906.56;5074835;27;45468;-59
2023/01/13 01:06:35;;;;;;;;;0.00;0.00;;;;;-146.44;100.00;58906.56;5075095;27;45562;-59
2023/01/13 01:09:02;;;;;;;;;0.33;0.00;;;;;-146.44;100.00;58906.56;5073981;27;45596;-60
2023/01/13 01:11:29;;;;;;;;;0.00;0.00;;;;;-146.44;100.00;58906.56;5064925;28;45572;-58
2023/01/13 01:13:59;;;;;;;;;0.00;0.00;;;;;-146.44;100.00;58906.56;5074584;28;45492;-61
2023/01/13 01:16:28;;;;;;;;;0.00;0.00;;;;;-146.44;100.00;58906.56;5074999;27;45598;-57
2023/01/13 01:18:54;;;;;;;;;0.00;0.00;;;;;-146.44;100.00;58906.56;5075103;27;45509;-57
2023/01/13 01:21:20;;;;;;;;;0.00;0.00;;;;;-146.44;100.00;58906.56;5073228;28;46368;-62
2023/01/13 01:23:46;;;;;;;;;0.00;0.00;;;;;-146.44;100.00;58906.56;5074752;27;45681;-59
2023/01/13 01:26:17;;;;;;;;;2.00;0.00;;;;;-146.44;100.00;58906.56;5074507;27;45835;-58
2023/01/13 01:28:43;;;;;;;;;0.00;0.00;;;;;-146.44;100.00;58906.56;5074708;27;45511;-61
2023/01/13 01:31:13;;;;;;;;;0.00;0.00;;;;;-146.44;100.00;58906.56;5074489;27;46220;-61
2023/01/13 01:33:42;;;;;;;;;0.00;0.00;;;;;-146.44;100.00;58906.56;5074646;27;45444;-59
2023/01/13 01:36:10;;;;;;;;;0.00;0.00;;;;;-146.44;100.00;58906.56;5074998;27;45508;-59
2023/01/13 01:38:35;;;;;;;;;1.00;0.00;;;;;-146.44;100.00;58906.56;5074654;27;45594;-61
2023/01/13 01:41:00;;;;;;;;;1.00;0.33;;;;;-146.44;100.00;58906.56;5073621;27;45568;-56
2023/01/13 01:44:18;;;;;;;;;0.00;0.00;;;;;-146.44;100.00;58906.56;5074517;27;45681;-59
2023/01/13 01:46:37;;;;;;;;;0.00;0.00;;;;;-146.44;100.00;58906.56;5072451;27;45454;-60
2023/01/13 01:49:24;;;;;;;;;0.00;0.00;;;;;-146.44;100.00;58906.56;5074073;27;45572;-59
2023/01/13 01:52:01;;;;;;;;;0.00;0.00;;;;;-146.44;100.00;58906.56;5074195;27;46135;-62
2023/01/13 01:54:58;;;;;;;;;2.00;0.33;;;;;-146.44;100.00;58906.56;5074100;28;45479;-61
2023/01/13 01:57:37;;;;;;;;;0.00;0.00;;;;;-146.44;100.00;58906.56;5064752;27;45511;-58
2023/01/13 02:00:04;;;;;;;;;1.33;0.00;;;;;-146.44;100.00;58906.56;5071894;27;45482;-58
2023/01/13 02:02:30;;;;;;;;;0.00;0.00;;;;;-146.44;100.00;58906.56;5072513;28;45461;-59
2023/01/13 02:04:56;;;;;;;;;0.33;0.33;;;;;-146.44;100.00;58906.56;5074003;28;45485;-57
2023/01/13 02:07:25;;;;;;;;;0.00;0.00;;;;;-146.44;100.00;58906.56;5073881;27;45436;-59
2023/01/13 02:09:53;;;;;;;;;0.00;0.00;;;;;-146.44;100.00;58906.56;5073457;28;45630;-57
2023/01/13 02:12:28;;;;;;;;;0.00;0.00;;;;;-146.44;100.00;58906.56;5077081;27;45520;-58
2023/01/13 02:14:55;;;;;;;;;0.00;0.00;;;;;-146.44;100.00;58906.56;5077483;27;45436;-58
2023/01/13 02:17:21;;;;;;;;;0.00;0.00;;;;;-146.44;100.00;58906.56;5077662;28;45520;-58
2023/01/13 02:20:01;;;;;;;;;0.00;0.00;;;;;-146.44;100.00;58906.56;5077439;27;45509;-58
2023/01/13 02:22:29;;;;;;;;;0.00;0.00;;;;;-146.44;100.00;58906.56;5077907;27;45472;-58
2023/01/13 02:25:07;;;;;;;;;0.00;0.00;;;;;-146.44;100.00;58906.56;5074840;27;45795;-60
2023/01/13 02:28:10;;;;;;;;;0.00;0.00;;;;;-146.44;100.00;58906.56;5075419;27;45468;-59
2023/01/13 02:33:47;;;;;;;;;3.00;0.00;;;;;-146.44;100.00;58906.56;5075900;27;45486;-59
2023/01/13 02:36:30;;;;;;;;;0.67;0.67;;;;;-146.44;100.00;58906.56;5074919;27;45575;-59
2023/01/13 02:39:02;;;;;;;;;0.00;0.00;;;;;-146.44;100.00;58906.56;5075444;27;45496;-61
2023/01/13 02:44:29;;;;;;;;;0.00;0.00;;;;;-146.44;100.00;58906.56;5075182;27;45643;-57
2023/01/13 02:47:05;;;;;;;;;0.00;0.00;;;;;-146.44;100.00;58906.56;5073297;28;45398;-60
2023/01/13 02:49:38;;;;;;;;;0.33;0.00;;;;;-146.44;100.00;58906.56;5076955;27;45488;-59
2023/01/13 02:52:28;;;;;;;;;0.00;0.00;;;;;-146.44;100.00;58906.56;5063847;28;45536;-60
2023/01/13 02:54:59;;;;;;;;;0.00;0.00;;;;;-146.44;100.00;58906.56;5077021;27;46234;-58
2023/01/13 02:57:27;;;;;;;;;0.00;0.00;;;;;-146.44;100.00;58906.56;5074970;27;45518;-61
2023/01/13 02:59:54;;;;;;;;;0.00;0.00;;;;;-146.44;100.00;58906.56;5076954;27;45499;-60
2023/01/13 03:02:22;;;;;;;;;0.00;0.00;;;;;-146.44;100.00;58906.56;5076974;27;45425;-58
2023/01/13 03:04:57;;;;;;;;;0.00;0.00;;;;;-146.44;100.00;58906.56;5076052;27;45433;-59
2023/01/13 03:07:38;;;;;;;;;1.00;0.00;;;;;-146.44;100.00;58906.56;5076907;27;45530;-59
2023/01/13 03:10:18;;;;;;;;;0.00;0.00;;;;;-146.44;100.00;58906.56;5076840;27;45475;-62
2023/01/13 03:12:55;;;;;;;;;0.00;0.00;;;;;-146.44;100.00;58906.56;5064567;28;45480;-59
2023/01/13 03:15:27;;;;;;;;;0.00;0.00;;;;;-146.44;100.00;58906.56;5076432;28;45448;-58
2023/01/13 03:18:30;;;;;;;;;3.33;1.00;;;;;-146.44;100.00;58906.56;5076526;27;45410;-58
2023/01/13 03:21:02;;;;;;;;;0.00;0.00;;;;;-146.44;100.00;58906.56;5076623;27;45467;-58
2023/01/13 03:23:49;;;;;;;;;0.00;0.00;;;;;-146.44;100.00;58906.56;5075789;27;46146;-59
2023/01/13 03:26:19;;;;;;;;;0.00;0.00;;;;;-146.44;100.00;58906.56;5076614;27;45516;-61
2023/01/13 03:28:51;;;;;;;;;1.00;1.00;;;;;-146.44;100.00;58906.56;5076372;27;45557;-59
2023/01/13 03:31:24;;;;;;;;;0.33;0.00;;;;;-146.44;100.00;58906.56;5076013;27;45421;-60
2023/01/13 03:33:58;;;;;;;;;2.00;0.67;;;;;-146.44;100.00;58906.56;5073864;27;45445;-58
2023/01/13 03:36:26;;;;;;;;;0.00;0.00;;;;;-146.44;100.00;58906.56;5061799;28;46234;-59
2023/01/13 03:38:56;;;;;;;;;1.00;0.00;;;;;-146.44;100.00;58906.56;5074586;27;45446;-61
2023/01/13 03:41:28;;;;;;;;;0.33;0.33;;;;;-146.44;100.00;58906.56;5074184;27;45591;-61
2023/01/13 03:44:23;;;;;;;;;1.33;1.33;;;;;-146.44;100.00;58906.56;5073608;27;45480;-61
2023/01/13 03:47:10;;;;;;;;;1.33;1.00;;;;;-146.44;100.00;58906.56;5064725;27;46384;-61
2023/01/13 03:49:37;;;;;;;;;2.00;0.00;;;;;-146.44;100.00;58906.56;5073579;27;45480;-60
2023/01/13 03:52:08;;;;;;;;;2.00;1.00;;;;;-146.44;100.00;58906.56;5074637;27;45582;-57
2023/01/13 03:54:43;;;;;;;;;0.00;0.00;;;;;-146.44;100.00;58906.56;5073207;27;45445;-58
2023/01/13 03:57:14;;;;;;;;;1.00;1.00;;;;;-146.44;100.00;58906.56;5075378;27;45531;-59
2023/01/13 03:59:44;;;;;;;;;1.00;0.00;;;;;-146.44;100.00;58906.56;5075144;27;45472;-59
2023/01/13 04:02:28;;;;;;;;;2.33;1.00;;;;;-146.44;100.00;58906.56;5074426;27;46205;-59
2023/01/13 04:04:58;;;;;;;;;0.33;0.33;;;;;-146.44;100.00;58906.56;5074430;27;45756;-59
2023/01/13 04:08:02;;;;;;;;;0.00;0.00;;;;;-146.44;100.00;58906.56;5073407;27;46104;-59
2023/01/13 04:10:37;;;;;;;;;0.00;0.00;;;;;-146.44;100.00;58906.56;5073979;27;45591;-61
2023/01/13 04:13:09;;;;;;;;;0.00;0.00;;;;;-146.44;100.00;58906.56;5074531;27;45464;-58
2023/01/13 04:15:41;;;;;;;;;0.00;0.00;;;;;-146.44;100.00;58906.56;5075974;27;45528;-61
2023/01/13 04:18:19;;;;;;;;;0.00;0.00;;;;;-146.44;100.00;58906.56;5073576;28;48136;-58
2023/01/13 04:20:47;;;;;;;;;0.33;0.33;;;;;-146.44;100.00;58906.56;5074688;27;45502;-61
2023/01/13 04:23:13;;;;;;;;;0.00;0.00;;;;;-146.44;100.00;58906.56;5075324;27;45481;-58
2023/01/13 04:25:42;;;;;;;;;2.00;1.00;;;;;-146.44;100.00;58906.56;5073544;28;45554;-58
2023/01/13 04:28:09;;;;;;;;;0.33;0.00;;;;;-146.44;100.00;58906.56;5074322;27;45480;-57
2023/01/13 04:30:35;;;;;;;;;1.00;0.67;;;;;-146.44;100.00;58906.56;5074574;27;45425;-60
2023/01/13 04:33:00;;;;;;;;;3.33;1.00;;;;;-146.44;100.00;58906.56;5075051;27;45531;-61
2023/01/13 04:35:26;;;;;;;;;3.00;1.00;;;;;-146.44;100.00;58906.56;5075280;27;45871;-60
2023/01/13 04:37:51;;;;;;;;;0.00;0.00;;;;;-146.44;100.00;58906.56;5074593;27;46054;-58
2023/01/13 04:40:16;;;;;;;;;2.00;0.00;;;;;-146.44;100.00;58906.56;5074497;27;45461;-59
2023/01/13 04:42:45;;;;;;;;;0.00;0.00;;;;;-146.44;100.00;58906.56;5075463;27;45696;-61
2023/01/13 04:45:11;;;;;;;;;1.00;1.00;;;;;-146.44;100.00;58906.56;5075462;27;45418;-61
2023/01/13 04:47:37;;;;;;;;;0.00;0.00;;;;;-146.44;100.00;58906.56;5074800;27;46177;-60
2023/01/13 04:50:02;;;;;;;;;0.00;0.00;;;;;-146.44;100.00;58906.56;5075426;27;45504;-57
2023/01/13 04:52:28;;;;;;;;;0.00;0.00;;;;;-146.44;100.00;58906.56;5075390;27;45468;-58
2023/01/13 04:54:53;;;;;;;;;0.00;0.00;;;;;-146.44;100.00;58906.56;5073954;27;45598;-58
2023/01/13 04:57:18;;;;;;;;;0.67;0.00;;;;;-146.44;100.00;58906.56;5075159;27;45653;-60
2023/01/13 04:59:44;;;;;;;;;1.00;1.00;;;;;-146.44;100.00;58906.56;5074271;27;45490;-60
2023/01/13 05:02:13;;;;;;;;;2.00;1.00;;;;;-146.44;100.00;58906.56;5075107;27;45459;-59
2023/01/13 05:04:39;;;;;;;;;2.33;2.33;;;;;-146.44;100.00;58906.56;5074867;27;45457;-59
2023/01/13 05:07:04;;;;;;;;;2.00;1.00;;;;;-146.44;100.00;58906.56;5071336;27;45438;-61
2023/01/13 05:09:29;;;;;;;;;1.33;1.33;;;;;-146.44;100.00;58906.56;5075268;27;45532;-59
2023/01/13 05:17:24;;;;;;;;;1.00;0.00;;;;;-146.44;100.00;58906.56;5074738;27;45534;-61
2023/01/13 05:19:49;;;;;;;;;0.00;0.00;;;;;-146.44;100.00;58906.56;5074946;27;45484;-59
2023/01/13 05:27:43;;;;;;;;;1.67;1.00;;;;;-146.44;100.00;58906.56;5074526;27;46742;-58
2023/01/13 05:30:11;;;;;;;;;0.00;0.00;;;;;-146.44;100.00;58906.56;5074555;27;45562;-62
2023/01/13 05:32:36;;;;;;;;;1.33;0.00;;;;;-146.44;100.00;58906.56;5074620;27;45499;-61
2023/01/13 05:35:02;;;;;;;;;2.33;0.67;;;;;-146.44;100.00;58906.56;5074451;27;45849;-58
2023/01/13 05:37:28;;;;;;;;;0.67;0.00;;;;;-146.44;100.00;58906.56;5074453;27;46158;-57
2023/01/13 05:45:21;;;;;;;;;0.33;0.33;;;;;-146.44;100.00;58906.56;5071908;28;45519;-61
2023/01/13 05:47:46;;;;;;;;;3.00;0.00;;;;;-146.44;100.00;58906.56;5074542;27;47338;-58
2023/01/13 05:50:12;;;;;;;;;1.00;1.00;;;;;-146.44;100.00;58906.56;5078012;27;45524;-61
2023/01/13 05:52:37;;;;;;;;;0.00;0.00;;;;;-146.44;100.00;58906.56;5078182;27;45715;-59
2023/01/13 05:55:03;;;;;;;;;1.33;1.33;;;;;-146.44;100.00;58906.56;5075454;27;45495;-60
2023/01/13 05:57:28;;;;;;;;;1.00;1.00;;;;;-146.44;100.00;58906.56;5076500;27;45456;-60
2023/01/13 05:59:53;;;;;;;;;4.00;1.33;;;;;-146.44;100.00;58906.56;5077477;27;45399;-58
2023/01/13 06:02:19;;;;;;;;;0.67;0.67;;;;;-146.44;100.00;58906.56;5075661;27;45358;-58
2023/01/13 06:04:44;;;;;;;;;3.33;1.00;;;;;-146.44;100.00;58906.56;5075799;27;45547;-60
2023/01/13 06:07:09;;;;;;;;;2.33;0.33;;;;;-146.44;100.00;58906.56;5077754;27;45447;-60
2023/01/13 06:09:35;;;;;;;;;1.00;1.00;;;;;-146.44;100.00;58906.56;5078962;27;45614;-58
2023/01/13 06:12:00;;;;;;;;;0.67;0.67;;;;;-146.44;100.00;58906.56;5077732;27;45457;-60
2023/01/13 06:14:38;;;;;;;;;1.00;1.00;;;;;-146.44;100.00;58906.56;5077618;27;45370;-61
2023/01/13 06:17:05;;;;;;;;;3.67;0.00;;;;;-146.44;100.00;58906.56;5074494;28;46085;-63
2023/01/13 06:19:31;;;;;;;;;0.00;0.00;;;;;-146.44;100.00;58906.56;5077459;27;45537;-59
2023/01/13 06:21:56;;;;;;;;;1.33;1.33;;;;;-146.44;100.00;58906.56;5077777;27;45441;-57
2023/01/13 06:24:22;;;;;;;;;1.33;1.33;;;;;-146.44;100.00;58906.56;5076366;27;45565;-61
2023/01/13 06:26:47;;;;;;;;;0.00;0.00;;;;;-146.44;100.00;58906.56;5077546;27;46035;-57
2023/01/13 06:29:15;;;;;;;;;0.00;0.00;;;;;-146.44;100.00;58906.56;5077324;27;45362;-60
2023/01/13 06:31:41;;;;;;;;;3.67;1.00;;;;;-146.44;100.00;58906.56;5077330;27;45524;-61
2023/01/13 06:34:10;;;;;;;;;0.33;0.33;;;;;-146.44;100.00;58906.56;5077139;27;45563;-57
2023/01/13 06:36:42;;;;;;;;;2.00;1.00;;;;;-146.44;100.00;58906.56;5075174;27;46383;-57
2023/01/13 06:39:09;;;;;;;;;2.67;2.00;;;;;-146.44;100.00;58906.56;5078144;27;45500;-58
2023/01/13 06:44:22;;;;;;;;;3.67;1.00;;;;;-146.44;100.00;58906.56;5076858;27;45545;-57
2023/01/13 06:46:48;;;;;;;;;1.00;1.00;;;;;-146.44;100.00;58906.56;5073634;27;46034;-56
2023/01/13 06:49:13;;;;;;;;;2.00;2.00;;;;;-146.44;100.00;58906.56;5076551;27;45568;-58
2023/01/13 06:51:38;;;;;;;;;3.00;1.33;;;;;-146.44;100.00;58906.56;5076941;27;45536;-58
2023/01/13 06:54:04;;;;;;;;;2.00;2.00;;;;;-146.44;100.00;58906.56;5076816;27;45461;-61
2023/01/13 06:56:29;;;;;;;;;2.00;2.00;;;;;-146.44;100.00;58906.56;5076229;27;46134;-59
2023/01/13 06:58:54;;;;;;;;;1.67;1.33;;;;;-146.44;100.00;58906.56;5076929;27;45528;-57
2023/01/13 07:01:20;;;;;;;;;2.00;2.00;;;;;-146.44;100.00;58906.56;5076218;27;45480;-60
2023/01/13 07:03:45;;;;;;;;;2.00;2.00;;;;;-146.44;100.00;58906.56;5075832;27;48764;-59
2023/01/13 07:06:10;;;;;;;;;4.00;2.00;;;;;-146.44;100.00;58906.56;5075784;27;45882;-61
2023/01/13 07:08:36;;;;;;;;;1.67;1.67;;;;;-146.44;100.00;58906.56;5071304;27;48325;-60
2023/01/13 07:11:01;;;;;;;;;4.67;1.00;;;;;-146.44;100.00;58906.56;5075849;28;46125;-60
2023/01/13 07:16:10;;;;;;;;;0.67;0.67;;;;;-146.44;100.00;58906.56;5073967;28;45553;-61
2023/01/13 07:18:36;;;;;;;;;1.33;1.00;;;;;-146.44;100.00;58906.56;5075897;28;45573;-55
2023/01/13 07:21:04;;;;;;;;;3.00;2.00;;;;;-146.44;100.00;58906.56;5075292;27;45445;-54
2023/01/13 07:23:31;;;;;;;;;2.00;2.00;;;;;-146.44;100.00;58906.56;5076311;27;45460;-56
2023/01/13 07:25:58;;;;;;;;;2.00;1.00;;;;;-146.44;100.00;58906.56;5076162;27;45595;-60
2023/01/13 07:28:24;;;;;;;;;1.00;1.00;;;;;-146.44;100.00;58906.56;5075785;27;45444;-61
2023/01/13 07:30:50;;;;;;;;;2.00;2.00;;;;;-146.44;100.00;58906.56;5076057;27;45476;-60
2023/01/13 07:33:17;;;;;;;;;3.00;1.33;;;;;-146.44;100.00;58906.56;5075463;28;45468;-60
2023/01/13 07:35:43;;;;;;;;;2.33;1.33;;;;;-146.44;100.00;58906.56;5076158;27;45978;-61
2023/01/13 07:38:08;;;;;;;;;2.00;2.00;;;;;-146.44;100.00;58906.56;5076092;27;45583;-60
2023/01/13 07:40:34;;;;;;;;;1.00;1.00;;;;;-146.44;100.00;58906.56;5075411;27;45720;-55
2023/01/13 07:45:43;;;;;;;;;2.00;1.00;;;;;-146.44;100.00;58906.56;5075677;27;46105;-55
2023/01/13 07:48:09;;;;;;;;;1.33;1.33;;;;;-146.44;100.00;58906.56;5073211;27;45422;-55
2023/01/13 07:50:34;;;;;;;;;2.00;2.00;;;;;-146.44;100.00;58906.56;5075792;27;46010;-49
2023/01/13 07:53:00;;;;;;;;;1.67;1.67;;;;;-146.44;100.00;58906.56;5075205;27;45458;-61
2023/01/13 07:55:25;;;;;;;;;2.00;1.00;;;;;-146.44;100.00;58906.56;5074992;27;46117;-58
2023/01/13 07:57:50;;;;;;;;;1.33;1.00;;;;;-146.44;100.00;58906.56;5075736;27;45449;-58
2023/01/13 08:00:16;;;;;;;;;4.67;3.67;;;;;-146.44;100.00;58906.56;5076024;27;45530;-58
2023/01/13 08:02:42;;;;;;;;;3.00;3.00;;;;;-146.44;100.00;58906.56;5076100;27;45634;-58
2023/01/13 08:05:07;;;;;;;;;3.00;3.00;;;;;-146.44;100.00;58906.56;5075677;27;45456;-59
2023/01/13 08:07:33;;;;;;;;;7.67;2.00;;;;;-146.44;100.00;58906.56;5069379;27;45541;-59
2023/01/13 08:09:58;;;;;;;;;2.00;2.00;;;;;-146.44;100.00;58906.56;5075490;27;45533;-59
2023/01/13 08:15:09;;;;;;;;;2.33;1.67;;;;;-146.44;100.00;58906.56;5074507;27;45470;-58
2023/01/13 08:17:35;;;;;;;;;1.00;1.00;;;;;-146.44;100.00;58906.56;5075278;27;45551;-56
2023/01/13 08:20:01;;;;;;;;;1.00;1.00;;;;;-146.44;100.00;58906.56;5075597;27;45391;-55
2023/01/13 08:22:26;;;;;;;;;2.00;1.00;;;;;-146.44;100.00;58906.56;5074696;27;45635;-58
2023/01/13 08:24:51;;;;;;;;;2.67;2.00;;;;;-146.44;100.00;58906.56;5074931;27;45869;-58
2023/01/13 08:27:19;;;;;;;;;0.00;0.00;;;;;-146.44;100.00;58906.56;5073292;27;49014;-59
2023/01/13 08:29:44;;;;;;;;;4.00;2.00;;;;;-146.44;100.00;58906.56;5075708;27;45575;-59
2023/01/13 08:32:09;;;;;;;;;1.33;1.33;;;;;-146.44;100.00;58906.56;5074258;27;45521;-54
2023/01/13 08:34:35;;;;;;;;;2.00;1.33;;;;;-146.44;100.00;58906.56;5075011;27;46157;-61
2023/01/13 08:37:00;;;;;;;;;1.00;1.00;;;;;-146.44;100.00;58906.56;5072886;27;45513;-58
2023/01/13 08:39:26;;;;;;;;;1.67;1.67;;;;;-146.44;100.00;58906.56;5074943;27;45359;-60
2023/01/13 08:41:54;;;;;;;;;1.67;1.67;;;;;-146.44;100.00;58906.56;5075371;28;45527;-60
2023/01/13 08:44:20;;;;;;;;;1.67;0.33;;;;;-146.44;100.00;58906.56;5072116;27;45412;-57
2023/01/13 08:46:46;;;;;;;;;1.00;1.00;;;;;-146.44;100.00;58906.56;5073242;27;45441;-63
2023/01/13 08:49:11;;;;;;;;;4.00;2.00;;;;;-146.44;100.00;58906.56;5074529;27;45472;-65
2023/01/13 08:51:37;;;;;;;;;3.00;3.00;;;;;-146.44;100.00;58906.56;5075215;27;45563;-61
2023/01/13 08:54:02;;;;;;;;;3.00;2.00;;;;;-146.44;100.00;58906.56;5074833;28;45595;-63
2023/01/13 08:56:30;;;;;;;;;2.00;2.00;;;;;-146.44;100.00;58906.56;5073999;27;45462;-62
2023/01/13 08:59:00;;;;;;;;;2.67;1.00;;;;;-146.44;100.00;58906.56;5072835;27;46193;-67
2023/01/13 09:01:25;;;;;;;;;3.00;2.00;;;;;-146.44;100.00;58906.56;5073169;27;45703;-67
2023/01/13 09:03:51;;;;;;;;;2.33;1.00;;;;;-146.44;100.00;58906.56;5073569;27;45497;-63
2023/01/13 09:06:17;;;;;;;;;1.00;1.00;;;;;-146.44;100.00;58906.56;5074708;27;45492;-63
2023/01/13 09:08:42;;;;;;;;;1.00;1.00;;;;;-146.44;100.00;58906.56;5059351;27;46095;-69
2023/01/13 09:14:02;;;;;;;;;4.00;3.00;;;;;-146.44;100.00;58906.56;5073906;27;45579;-63
2023/01/13 09:16:28;;;;;;;;;3.67;2.00;;;;;-146.44;100.00;58906.56;5073402;27;45572;-63
2023/01/13 09:18:53;;;;;;;;;2.33;2.33;;;;;-146.44;100.00;58906.56;5074345;28;45647;-65
2023/01/13 09:21:19;;;;;;;;;2.00;1.00;;;;;-146.44;100.00;58906.56;5071808;27;45418;-63
2023/01/13 09:23:45;;;;;;;;;2.33;1.00;;;;;-146.44;100.00;58906.56;5074504;27;45430;-64
2023/01/13 09:26:18;;;;;;;;;3.00;2.00;;;;;-146.44;100.00;58906.56;5074293;27;45425;-64
2023/01/13 09:28:44;;;;;;;;;2.67;1.67;;;;;-146.44;100.00;58906.56;5073876;27;45517;-64
2023/01/13 09:31:09;;;;;;;;;4.00;4.00;;;;;-146.44;100.00;58906.56;5072612;27;45491;-61
2023/01/13 09:36:18;;;;;;;;;2.33;2.33;;;;;-146.44;100.00;58906.56;5074449;27;45582;-63
2023/01/13 09:38:44;;;;;;;;;2.67;2.67;;;;;-146.44;100.00;58906.56;5074328;28;45508;-62
2023/01/13 09:44:12;;;;;;;;;3.00;1.00;;;;;-146.44;100.00;58906.56;5072256;28;45523;-65
2023/01/13 09:46:46;;;;;;;;;1.33;1.00;;;;;-146.44;100.00;58906.56;5073302;27;45645;-61
2023/01/13 09:49:29;;;;;;;;;3.67;2.33;;;;;-146.44;100.00;58906.56;5073968;27;45548;-65
2023/01/13 09:52:02;;;;;;;;;1.33;1.00;;;;;-146.44;100.00;58906.56;5072625;28;45658;-62
2023/01/13 09:54:34;;;;;;;;;1.00;1.00;;;;;-146.44;100.00;58906.56;5073946;27;46380;-63
2023/01/13 09:57:00;;;;;;;;;6.67;2.00;;;;;-146.44;100.00;58906.56;5073545;28;45436;-65
2023/01/13 09:59:31;;;;;;;;;1.00;0.67;;;;;-146.44;100.00;58906.56;5072968;27;45673;-62
2023/01/13 10:02:19;;;;;;;;;3.00;3.00;;;;;-146.44;100.00;58906.56;5073052;27;45380;-58
2023/01/13 10:05:33;;;;;;;;;1.00;1.00;;;;;-146.44;100.00;58906.56;5070241;28;45582;-60
2023/01/13 10:08:04;;;;;;;;;1.00;1.00;;;;;-146.44;100.00;58906.56;5051268;28;45476;-59
2023/01/13 10:10:49;;;;;;;;;1.33;0.33;;;;;-146.44;100.00;58906.56;5051275;28;45545;-61
2023/01/13 10:13:29;;;;;;;;;1.00;1.00;;;;;-146.44;100.00;58906.56;5064419;28;45572;-63
2023/01/13 10:16:06;;;;;;;;;3.33;2.33;;;;;-146.44;100.00;58906.56;5058832;27;45446;-54
2023/01/13 10:18:48;;;;;;;;;1.00;0.00;;;;;-146.44;100.00;58906.56;5073991;27;45516;-49
2023/01/13 10:22:00;;;;;;;;;2.67;1.33;;;;;-146.44;100.00;58906.56;5074045;27;45544;-52
2023/01/13 10:25:08;;;;;;;;;4.00;2.00;;;;;-146.44;100.00;58906.56;5074048;27;45583;-55
2023/01/13 10:27:38;;;;;;;;;1.33;1.33;;;;;-146.44;100.00;58906.56;5073572;27;46531;-55
2023/01/13 10:30:20;;;;;;;;;1.00;1.00;;;;;-146.44;100.00;58906.56;5072372;27;45449;-53
2023/01/13 10:32:58;;;;;;;;;0.00;0.00;;;;;-146.44;100.00;58906.56;5075634;27;45526;-55
2023/01/13 10:35:51;;;;;;;;;1.00;0.00;;;;;-146.44;100.00;58906.56;5077129;28;45636;-56
2023/01/13 10:38:38;;;;;;;;;3.00;1.67;;;;;-146.44;100.00;58906.56;5071983;27;46267;-52
2023/01/13 10:41:19;;;;;;;;;1.00;1.00;;;;;-146.44;100.00;58906.56;5075975;27;45441;-53
2023/01/13 10:43:50;;;;;;;;;0.67;0.67;;;;;-146.44;100.00;58906.56;5077112;27;45531;-50
2023/01/13 10:46:15;;;;;;;;;4.33;1.00;;;;;-146.44;100.00;58906.56;5076854;27;45552;-51
2023/01/13 10:48:50;;;;;;;;;3.33;0.67;;;;;-146.44;100.00;58906.56;5076764;27;45986;-53
2023/01/13 10:51:24;;;;;;;;;1.00;1.00;;;;;-146.44;100.00;58906.56;5076780;27;45593;-57
2023/01/13 10:53:51;;;;;;;;;1.00;1.00;;;;;-146.44;100.00;58906.56;5077176;27;45518;-53
2023/01/13 10:56:18;;;;;;;;;0.67;0.67;;;;;-146.44;100.00;58906.56;5075825;27;45769;-53
2023/01/13 10:58:45;;;;;;;;;1.00;1.00;;;;;-146.44;100.00;58906.56;5076720;27;46393;-50
2023/01/13 11:01:36;;;;;;;;;1.00;1.00;;;;;-146.44;100.00;58906.56;5076683;27;45504;-53
2023/01/13 11:04:25;;;;;;;;;1.00;1.00;;;;;-146.44;100.00;58906.56;5075059;27;45490;-55
2023/01/13 11:06:51;;;;;;;;;1.00;1.00;;;;;-146.44;100.00;58906.56;5075000;27;45557;-54
2023/01/13 11:09:19;;;;;;;;;1.00;1.00;;;;;-146.44;100.00;58906.56;5061878;27;45965;-60
2023/01/13 11:11:46;;;;;;;;;1.00;1.00;;;;;-146.44;100.00;58906.56;5076544;27;45375;-57
2023/01/13 11:14:40;;;;;;;;;4.67;2.33;;;;;-146.44;100.00;58906.56;5076518;27;45516;-52
2023/01/13 11:17:14;;;;;;;;;2.00;2.00;;;;;-146.44;100.00;58906.56;5076283;27;45472;-53
2023/01/13 11:19:46;;;;;;;;;8.33;4.33;;;;;-146.44;100.00;58906.56;5076261;27;46032;-53
2023/01/13 11:22:46;;;;;;;;;5.00;4.00;;;;;-146.44;100.00;58906.56;5076254;27;45476;-57
2023/01/13 11:25:42;;;;;;;;;1.00;1.00;;;;;-146.44;100.00;58906.56;5054508;28;45558;-50
2023/01/13 11:28:19;;;;;;;;;2.00;2.00;;;;;-146.44;100.00;58906.56;5064522;27;45549;-55
2023/01/13 11:30:57;;;;;;;;;3.33;1.33;;;;;-146.44;100.00;58906.56;5075960;27;47253;-55
2023/01/13 11:33:34;;;;;;;;;1.67;1.67;;;;;-146.44;100.00;58906.56;5074170;27;45601;-56
2023/01/13 11:35:59;;;;;;;;;5.00;3.33;;;;;-146.44;100.00;58906.56;5076008;27;45413;-54
2023/01/13 11:38:46;;;;;;;;;4.67;3.67;;;;;-146.44;100.00;58906.56;5075679;27;45562;-57
2023/01/13 11:41:23;;;;;;;;;2.33;2.00;;;;;-146.44;100.00;58906.56;5075603;27;47234;-55
2023/01/13 11:43:54;;;;;;;;;3.33;3.33;;;;;-146.44;100.00;58906.56;5074963;27;45536;-55
2023/01/13 11:46:25;;;;;;;;;2.67;1.00;;;;;-146.44;100.00;58906.56;5074733;27;45453;-54
2023/01/13 11:48:55;;;;;;;;;2.33;1.00;;;;;-146.44;100.00;58906.56;5075896;28;45577;-55
2023/01/13 11:51:29;;;;;;;;;1.00;1.00;;;;;-146.44;100.00;58906.56;5074316;27;46225;-55
2023/01/13 11:54:00;;;;;;;;;2.33;1.00;;;;;-146.44;100.00;58906.56;5075501;27;45488;-49
2023/01/13 11:56:44;;;;;;;;;1.00;1.00;;;;;-146.44;100.00;58906.56;5076042;27;45367;-50
2023/01/13 11:59:53;;;;;;;;;4.00;2.00;;;;;-146.44;100.00;58906.56;5076115;28;45468;-54
2023/01/13 12:02:49;;;;;;;;;1.67;1.00;;;;;-146.44;100.00;58906.56;5075502;27;45524;-53
2023/01/13 12:05:40;;;;;;;;;3.00;1.00;;;;;-146.44;100.00;58906.56;5061889;28;45500;-56
2023/01/13 12:08:22;;;;;;;;;1.33;1.33;;;;;-146.44;100.00;58906.56;5063740;27;45540;-57
2023/01/13 12:11:29;;;;;;;;;2.00;1.00;;;;;-146.44;100.00;58906.56;5061390;28;45587;-49